Littlefield, Arizona
Current Conditions -  °F | °C
As of 7:35 PM on Wednesday 22 Oct 2014 (Local Time) from KSGU Reporting Station
Clear Clear  
Wind Chill: 70°   Ceiling: Unl
Heat Index: 70°   Visibility: 10mi
Dew Point: 32°   Wind: 0mph
Humidity: 25%   Direction: NA
Pressure: 30.08"   Gusts: NA
Location:  36.89°N, 113.93°W
Report Text: KSGU 230235Z AUTO 00000KT 10SM CLR 21/00 A3008 RMK AO1
Loading
Personal Weather Stations






























Interactive Weather Map
Tropical Storm Tracking
New forecast layout! Learn more

10-Day Weather Forecast

Advertisements
Track Severe Weather on mobile